Time;durP1;ratioP1;P1;durP2;ratioP2;P2;SDS_P1;SDS_P2;PMS_P1;PMS_P2;Temp;Humidity;BMP_temperature;BMP_pressure;BME280_temperature;BME280_humidity;BME280_pressure;Samples;Min_cycle;Max_cycle;Signal;HPM_P1;HPM_P2
2023/04/17 07:53:30;;;;;;;47.17;25.38;;;;;;;8.02;100.00;102494.91;5149193;27;20436;-78
2023/04/17 07:55:57;;;;;;;46.17;29.33;;;;;;;8.06;100.00;102502.50;5136616;27;20027;-77
2023/04/17 07:58:34;;;;;;;52.92;28.73;;;;;;;8.08;100.00;102497.78;5130812;27;20028;-75
2023/04/17 08:01:03;;;;;;;47.80;30.85;;;;;;;8.10;100.00;102505.72;5123293;28;20020;-77
2023/04/17 08:03:31;;;;;;;48.55;31.15;;;;;;;8.10;100.00;102511.09;5096506;28;20076;-77
2023/04/17 08:05:57;;;;;;;47.83;31.92;;;;;;;8.13;100.00;102508.06;5109781;27;20055;-75
2023/04/17 08:08:23;;;;;;;48.55;31.83;;;;;;;8.17;100.00;102498.63;5090660;28;20028;-74
2023/04/17 08:10:48;;;;;;;43.65;31.02;;;;;;;8.26;100.00;102508.41;5109678;28;20085;-75
2023/04/17 08:13:14;;;;;;;45.83;32.40;;;;;;;8.36;100.00;102504.69;5110083;28;20066;-76
2023/04/17 08:15:42;;;;;;;43.50;29.90;;;;;;;8.46;100.00;102505.41;5109648;28;20066;-77
2023/04/17 08:18:08;;;;;;;42.35;29.23;;;;;;;8.51;100.00;102511.13;5091802;28;20027;-75
2023/04/17 08:20:34;;;;;;;41.88;30.30;;;;;;;8.56;100.00;102511.47;5091525;28;20027;-75
2023/04/17 08:23:00;;;;;;;39.22;27.55;;;;;;;8.66;100.00;102514.78;5107958;28;20097;-77
2023/04/17 08:25:28;;;;;;;38.00;27.45;;;;;;;8.76;100.00;102511.09;5103578;28;20536;-77
2023/04/17 08:27:57;;;;;;;35.38;26.98;;;;;;;8.80;100.00;102518.69;5100792;28;20061;-76
2023/04/17 08:30:22;;;;;;;34.90;25.35;;;;;;;8.83;100.00;102514.75;5109371;28;20064;-76
2023/04/17 08:32:49;;;;;;;35.28;26.80;;;;;;;8.80;100.00;102518.69;5108433;28;20499;-75
2023/04/17 08:35:18;;;;;;;34.13;25.88;;;;;;;8.81;100.00;102514.09;5091041;28;20032;-76
2023/04/17 08:37:46;;;;;;;38.38;25.20;;;;;;;8.81;100.00;102519.50;5089450;28;20040;-76
2023/04/17 08:40:27;;;;;;;;;;;;;;;;;;;;;
2023/04/17 08:46:22;;;;;;;32.92;24.27;;;;;;;8.91;100.00;102527.41;5011827;28;20184;-79
2023/04/17 08:49:06;;;;;;;;;;;;;;;;;;;;;
2023/04/17 08:51:35;;;;;;;35.35;26.00;;;;;;;8.95;100.00;102517.94;5106683;28;20467;-77
2023/04/17 08:54:46;;;;;;;36.85;26.70;;;;;;;9.02;100.00;102519.78;5090386;28;20118;-80
2023/04/17 08:57:48;;;;;;;36.97;25.45;;;;;;;9.07;100.00;102515.72;5104753;28;20103;-79
2023/04/17 13:06:50;;;;;;;;;;;;;;;;;;;;;
2023/04/17 13:27:24;;;;;;;;;;;;;;;;;;;;;
2023/04/17 13:38:37;;;;;;;;;;;;;;;;;;;;;
2023/04/17 13:41:49;;;;;;;28.13;15.27;;;;;;;15.26;54.73;102437.41;4715277;30;20500;-78
2023/04/17 13:44:50;;;;;;;22.05;16.48;;;;;;;15.41;54.47;102433.34;4771868;30;20050;-78
2023/04/17 13:48:00;;;;;;;24.70;15.32;;;;;;;15.64;54.18;102433.81;4768515;30;20044;-78
2023/04/17 13:51:09;;;;;;;21.48;14.55;;;;;;;15.65;54.95;102436.31;4768693;30;20039;-77
2023/04/17 13:53:35;;;;;;;22.75;14.27;;;;;;;15.58;52.75;102438.28;4773931;30;20511;-78
2023/04/17 13:56:04;;;;;;;19.17;14.10;;;;;;;15.62;52.58;102439.50;4807466;29;20046;-78
2023/04/17 14:02:48;;;;;;;;;;;;;;;;;;;;;
2023/04/17 14:27:27;;;;;;;17.77;13.00;;;;;;;15.97;52.37;102421.84;4585265;31;20035;-78
2023/04/17 14:41:32;;;;;;;;;;;;;;;;;;;;;
2023/04/17 15:23:28;;;;;;;15.60;11.02;;;;;;;17.60;45.64;102386.69;4663044;30;20037;-77
2023/04/17 15:41:00;;;;;;;;;;;;;;;;;;;;;
2023/04/17 15:44:22;;;;;;;;;;;;;;;;;;;;;
2023/04/17 15:51:11;;;;;;;;;;;;;;;;;;;;;
2023/04/17 15:57:48;;;;;;;14.77;9.27;;;;;;;19.21;42.64;102362.56;4649146;30;20506;-77
2023/04/17 16:00:51;;;;;;;16.88;9.52;;;;;;;19.23;42.44;102365.91;4651652;30;20411;-77
2023/04/17 16:07:04;;;;;;;13.68;9.43;;;;;;;19.39;39.56;102356.03;4662702;30;20097;-77
2023/04/17 16:14:06;;;;;;;;;;;;;;;;;;;;;
2023/04/17 16:17:15;;;;;;;14.40;8.90;;;;;;;18.14;42.34;102359.25;4764350;29;20043;-77
2023/04/17 16:20:30;;;;;;;12.07;8.63;;;;;;;17.97;41.72;102361.06;4843605;29;20569;-77
2023/04/17 16:23:39;;;;;;;13.63;9.13;;;;;;;17.78;43.08;102361.13;4844797;29;20038;-77
2023/04/17 16:29:32;;;;;;;14.60;9.20;;;;;;;17.40;40.83;102367.84;4844985;29;20106;-76
2023/04/17 16:32:33;;;;;;;11.98;8.98;;;;;;;17.15;41.29;102357.91;4844980;29;20429;-76
2023/04/17 16:35:06;;;;;;;17.17;9.50;;;;;;;17.11;40.15;102364.06;4844576;29;20034;-76
2023/04/17 16:37:43;;;;;;;15.80;9.98;;;;;;;16.92;40.80;102364.09;4843687;29;20030;-77
2023/04/17 16:40:10;;;;;;;18.33;9.70;;;;;;;16.84;42.10;102361.66;4844608;29;20057;-76
2023/04/17 16:43:08;;;;;;;13.80;9.80;;;;;;;16.70;41.75;102365.63;4844749;29;20070;-76
2023/04/17 16:45:46;;;;;;;14.90;10.32;;;;;;;16.61;41.84;102360.47;4844806;29;20026;-77
2023/04/17 16:48:24;;;;;;;14.07;9.98;;;;;;;16.56;43.14;102362.22;4844537;29;20448;-76
2023/04/17 16:51:14;;;;;;;17.33;10.43;;;;;;;16.42;43.03;102362.34;4844524;29;20443;-76
2023/04/17 16:53:51;;;;;;;15.50;11.38;;;;;;;16.32;43.51;102364.81;4843462;29;20466;-76
2023/04/17 16:56:31;;;;;;;20.98;11.52;;;;;;;16.24;43.78;102365.09;4827518;29;20493;-76
2023/04/17 16:59:03;;;;;;;17.85;11.43;;;;;;;16.10;43.57;102364.38;4844470;29;20076;-76
2023/04/17 17:01:49;;;;;;;15.60;11.38;;;;;;;16.06;44.77;102361.28;4841415;29;20041;-76
2023/04/17 17:04:17;;;;;;;14.43;11.43;;;;;;;15.96;44.51;102358.22;4844149;29;20040;-76
2023/04/17 17:06:50;;;;;;;19.08;11.80;;;;;;;15.89;45.13;102362.91;4827517;29;20470;-76
2023/04/17 17:09:30;;;;;;;15.38;11.82;;;;;;;15.82;45.15;102362.13;4844127;29;20030;-76
2023/04/17 17:12:10;;;;;;;13.88;10.85;;;;;;;15.71;45.42;102359.03;4844302;29;20034;-76
2023/04/17 17:14:47;;;;;;;16.08;11.35;;;;;;;15.64;46.07;102361.00;4827978;29;20065;-77
2023/04/17 17:17:31;;;;;;;17.02;11.68;;;;;;;15.57;45.51;102363.75;4827282;29;20128;-77
2023/04/17 17:20:21;;;;;;;14.90;11.70;;;;;;;15.53;46.42;102358.97;4844355;29;20378;-76
2023/04/17 17:22:54;;;;;;;15.40;11.52;;;;;;;15.39;45.80;102360.97;4842886;29;20053;-76
2023/04/17 17:25:40;;;;;;;17.17;12.55;;;;;;;15.33;46.41;102362.66;4842352;29;20124;-76
2023/04/17 17:28:11;;;;;;;19.67;12.35;;;;;;;15.23;46.60;102365.88;4827752;29;20033;-76
2023/04/17 17:30:39;;;;;;;17.17;12.85;;;;;;;15.06;47.38;102364.72;4827390;29;20083;-76
2023/04/17 17:33:15;;;;;;;15.00;12.02;;;;;;;15.03;47.55;102363.25;4827606;29;20033;-76
2023/04/17 17:35:44;;;;;;;15.35;12.15;;;;;;;14.99;47.36;102359.31;4844263;29;20034;-76
2023/04/17 17:38:29;;;;;;;17.30;12.02;;;;;;;14.92;47.69;102366.69;4843527;29;20062;-76
2023/04/17 17:41:21;;;;;;;13.93;11.35;;;;;;;14.88;48.59;102362.72;4844039;29;20080;-76
2023/04/17 17:43:50;;;;;;;15.57;12.75;;;;;;;14.79;48.44;102358.56;4844054;29;20121;-76
2023/04/17 17:46:58;;;;;;;18.95;12.40;;;;;;;14.74;49.65;102358.38;4826783;29;20025;-77
2023/04/17 17:49:34;;;;;;;18.40;12.57;;;;;;;14.66;49.42;102360.28;4843566;29;20033;-77
2023/04/17 17:52:08;;;;;;;15.95;12.70;;;;;;;14.54;50.39;102359.25;4827409;29;20022;-77
2023/04/17 17:54:47;;;;;;;15.90;12.80;;;;;;;14.52;49.24;102358.63;4842248;29;20184;-77
2023/04/17 17:57:28;;;;;;;18.45;13.27;;;;;;;14.47;50.11;102362.00;4843272;29;20061;-77
2023/04/17 17:59:53;;;;;;;18.70;13.10;;;;;;;14.45;50.12;102357.81;4842426;29;20045;-77
2023/04/17 18:02:21;;;;;;;17.65;13.73;;;;;;;14.39;50.09;102358.66;4840845;29;20026;-77
2023/04/17 18:04:46;;;;;;;20.33;12.88;;;;;;;14.37;49.69;102361.59;4826927;29;20049;-77
2023/04/17 18:07:20;;;;;;;20.13;13.25;;;;;;;14.30;50.29;102361.63;4843107;29;20022;-77
2023/04/17 18:09:48;;;;;;;17.63;13.20;;;;;;;14.28;50.37;102362.88;4843298;29;20022;-77
2023/04/17 18:12:36;;;;;;;18.08;13.23;;;;;;;14.26;51.05;102368.53;4826681;29;20094;-77
2023/04/17 18:15:18;;;;;;;17.05;12.35;;;;;;;14.18;51.65;102363.31;4843596;29;20026;-77
2023/04/17 18:17:56;;;;;;;16.88;12.75;;;;;;;14.12;52.21;102364.19;4826721;29;20026;-77
2023/04/17 18:20:24;;;;;;;17.08;12.57;;;;;;;14.05;51.72;102364.16;4826363;29;20038;-77
2023/04/17 18:22:52;;;;;;;18.90;13.63;;;;;;;13.95;51.42;102364.59;4843080;29;20022;-77
2023/04/17 18:25:20;;;;;;;20.88;13.05;;;;;;;13.89;52.16;102372.75;4842876;29;20170;-76
2023/04/17 18:27:46;;;;;;;15.65;12.93;;;;;;;13.88;52.51;102380.09;4842660;29;20029;-76
2023/04/17 18:30:14;;;;;;;17.65;12.98;;;;;;;13.84;52.90;102373.38;4842998;29;20065;-76
2023/04/17 18:32:45;;;;;;;17.63;12.60;;;;;;;13.80;53.09;102374.88;4826336;29;20126;-76
2023/04/17 18:35:22;;;;;;;15.73;12.50;;;;;;;13.72;54.56;102375.06;4841379;29;20154;-76
2023/04/17 18:37:52;;;;;;;15.20;12.30;;;;;;;13.68;53.89;102376.53;4823002;29;20025;-72
2023/04/17 18:40:17;;;;;;;17.70;12.93;;;;;;;13.64;54.11;102373.41;4823962;29;20046;-74
2023/04/17 18:42:42;;;;;;;16.58;12.10;;;;;;;13.55;54.31;102380.91;4841386;29;20022;-74
2023/04/17 18:45:08;;;;;;;14.55;11.40;;;;;;;13.55;55.20;102380.09;4842703;29;20029;-76
2023/04/17 18:47:34;;;;;;;15.65;12.23;;;;;;;13.47;55.10;102389.28;4825676;29;20032;-75
2023/04/17 18:49:59;;;;;;;14.57;10.98;;;;;;;13.47;55.48;102384.66;4842172;29;20053;-76
2023/04/17 18:52:25;;;;;;;14.02;11.27;;;;;;;13.44;55.96;102384.25;4825954;29;20045;-75
2023/04/17 18:54:50;;;;;;;14.80;11.13;;;;;;;13.36;56.70;102387.16;4842895;29;20570;-76
2023/04/17 18:57:15;;;;;;;14.13;10.95;;;;;;;13.38;56.62;102382.38;4822025;29;20046;-76
2023/04/17 18:59:43;;;;;;;15.50;11.80;;;;;;;13.29;57.20;102387.13;4823290;29;20036;-76
2023/04/17 19:02:08;;;;;;;17.15;11.85;;;;;;;13.25;57.34;102377.69;4822516;29;20447;-76
2023/04/17 19:04:34;;;;;;;17.05;12.05;;;;;;;13.24;58.20;102379.59;4822793;29;20037;-76
2023/04/17 19:07:01;;;;;;;19.23;11.52;;;;;;;13.18;58.27;102374.09;4807943;29;20037;-75
2023/04/17 19:09:26;;;;;;;16.50;12.10;;;;;;;13.16;59.23;102381.66;4822829;29;20049;-74
2023/04/17 19:11:52;;;;;;;16.67;11.60;;;;;;;13.12;59.42;102383.94;4839624;29;20363;-75
2023/04/17 19:14:17;;;;;;;15.73;11.60;;;;;;;13.16;59.85;102381.66;4842212;29;20033;-75
2023/04/17 19:16:42;;;;;;;14.23;10.98;;;;;;;13.05;61.07;102383.91;4840875;29;20090;-74
